sensor_id;sensor_type;location;lat;lon;timestamp;P1;durP1;ratioP1;P2;durP2;ratioP2
70420;SDS011;57848;51.938;15.520;2022-07-06T00:01:47;5.93;;;2.33;;
70420;SDS011;57848;51.938;15.520;2022-07-06T00:04:13;8.52;;;2.47;;
70420;SDS011;57848;51.938;15.520;2022-07-06T00:06:38;6.63;;;2.37;;
70420;SDS011;57848;51.938;15.520;2022-07-06T00:09:05;8.32;;;2.40;;
70420;SDS011;57848;51.938;15.520;2022-07-06T00:11:31;6.97;;;2.13;;
70420;SDS011;57848;51.938;15.520;2022-07-06T00:13:56;8.03;;;2.20;;
70420;SDS011;57848;51.938;15.520;2022-07-06T00:16:22;7.43;;;2.20;;
70420;SDS011;57848;51.938;15.520;2022-07-06T00:18:48;8.50;;;2.00;;
70420;SDS011;57848;51.938;15.520;2022-07-06T00:21:14;7.25;;;2.60;;
70420;SDS011;57848;51.938;15.520;2022-07-06T00:23:40;7.40;;;2.30;;
70420;SDS011;57848;51.938;15.520;2022-07-06T00:26:05;6.37;;;2.27;;
70420;SDS011;57848;51.938;15.520;2022-07-06T00:28:31;6.73;;;2.33;;
70420;SDS011;57848;51.938;15.520;2022-07-06T00:30:56;6.47;;;2.20;;
70420;SDS011;57848;51.938;15.520;2022-07-06T00:33:21;8.27;;;2.20;;
70420;SDS011;57848;51.938;15.520;2022-07-06T00:35:47;7.43;;;2.17;;
70420;SDS011;57848;51.938;15.520;2022-07-06T00:38:13;7.47;;;2.40;;
70420;SDS011;57848;51.938;15.520;2022-07-06T00:40:39;7.23;;;2.27;;
70420;SDS011;57848;51.938;15.520;2022-07-06T00:43:04;7.33;;;2.30;;
70420;SDS011;57848;51.938;15.520;2022-07-06T00:45:29;7.93;;;2.20;;
70420;SDS011;57848;51.938;15.520;2022-07-06T00:47:55;8.27;;;2.20;;
70420;SDS011;57848;51.938;15.520;2022-07-06T00:50:20;9.40;;;2.17;;
70420;SDS011;57848;51.938;15.520;2022-07-06T00:52:47;7.10;;;2.40;;
70420;SDS011;57848;51.938;15.520;2022-07-06T00:55:16;7.13;;;1.90;;
70420;SDS011;57848;51.938;15.520;2022-07-06T00:57:43;7.30;;;2.20;;
70420;SDS011;57848;51.938;15.520;2022-07-06T01:00:10;6.32;;;2.25;;
70420;SDS011;57848;51.938;15.520;2022-07-06T01:02:37;6.07;;;2.13;;
70420;SDS011;57848;51.938;15.520;2022-07-06T01:05:06;6.70;;;1.95;;
70420;SDS011;57848;51.938;15.520;2022-07-06T01:07:34;6.75;;;2.28;;
70420;SDS011;57848;51.938;15.520;2022-07-06T01:10:01;8.60;;;2.30;;
70420;SDS011;57848;51.938;15.520;2022-07-06T01:12:28;7.13;;;2.05;;
70420;SDS011;57848;51.938;15.520;2022-07-06T01:14:54;7.35;;;2.03;;
70420;SDS011;57848;51.938;15.520;2022-07-06T01:17:19;5.83;;;2.50;;
70420;SDS011;57848;51.938;15.520;2022-07-06T01:19:45;6.72;;;2.25;;
70420;SDS011;57848;51.938;15.520;2022-07-06T01:22:11;7.37;;;2.10;;
70420;SDS011;57848;51.938;15.520;2022-07-06T01:24:37;9.00;;;2.60;;
70420;SDS011;57848;51.938;15.520;2022-07-06T01:27:06;6.68;;;2.03;;
70420;SDS011;57848;51.938;15.520;2022-07-06T01:29:32;8.43;;;2.22;;
70420;SDS011;57848;51.938;15.520;2022-07-06T01:31:58;8.37;;;2.20;;
70420;SDS011;57848;51.938;15.520;2022-07-06T01:34:24;6.18;;;2.20;;
70420;SDS011;57848;51.938;15.520;2022-07-06T01:36:50;6.47;;;2.40;;
70420;SDS011;57848;51.938;15.520;2022-07-06T01:39:17;7.50;;;2.17;;
70420;SDS011;57848;51.938;15.520;2022-07-06T01:41:44;6.22;;;2.35;;
70420;SDS011;57848;51.938;15.520;2022-07-06T01:44:09;7.60;;;2.30;;
70420;SDS011;57848;51.938;15.520;2022-07-06T01:46:36;7.57;;;2.75;;
70420;SDS011;57848;51.938;15.520;2022-07-06T01:49:02;6.00;;;2.45;;
70420;SDS011;57848;51.938;15.520;2022-07-06T01:51:28;7.00;;;2.30;;
70420;SDS011;57848;51.938;15.520;2022-07-06T01:53:53;6.70;;;2.20;;
70420;SDS011;57848;51.938;15.520;2022-07-06T01:56:19;7.25;;;2.70;;
70420;SDS011;57848;51.938;15.520;2022-07-06T01:58:47;6.70;;;2.50;;
70420;SDS011;57848;51.938;15.520;2022-07-06T02:01:14;8.05;;;2.50;;
70420;SDS011;57848;51.938;15.520;2022-07-06T02:03:43;7.03;;;2.78;;
70420;SDS011;57848;51.938;15.520;2022-07-06T02:06:09;5.77;;;2.00;;
70420;SDS011;57848;51.938;15.520;2022-07-06T02:08:35;12.85;;;2.40;;
70420;SDS011;57848;51.938;15.520;2022-07-06T02:11:02;8.52;;;2.60;;
70420;SDS011;57848;51.938;15.520;2022-07-06T02:13:29;6.38;;;2.45;;
70420;SDS011;57848;51.938;15.520;2022-07-06T02:15:54;9.23;;;2.27;;
70420;SDS011;57848;51.938;15.520;2022-07-06T02:18:20;6.77;;;2.33;;
70420;SDS011;57848;51.938;15.520;2022-07-06T02:20:45;7.27;;;2.50;;
70420;SDS011;57848;51.938;15.520;2022-07-06T02:23:11;10.07;;;3.00;;
70420;SDS011;57848;51.938;15.520;2022-07-06T02:25:36;7.57;;;2.10;;
70420;SDS011;57848;51.938;15.520;2022-07-06T02:28:02;5.20;;;2.03;;
70420;SDS011;57848;51.938;15.520;2022-07-06T02:30:27;7.88;;;2.38;;
70420;SDS011;57848;51.938;15.520;2022-07-06T02:32:53;5.85;;;1.73;;
70420;SDS011;57848;51.938;15.520;2022-07-06T02:35:19;6.23;;;2.03;;
70420;SDS011;57848;51.938;15.520;2022-07-06T02:37:44;6.40;;;2.40;;
70420;SDS011;57848;51.938;15.520;2022-07-06T02:40:10;6.80;;;2.40;;
70420;SDS011;57848;51.938;15.520;2022-07-06T02:42:36;7.82;;;2.40;;
70420;SDS011;57848;51.938;15.520;2022-07-06T02:45:01;5.47;;;2.08;;
70420;SDS011;57848;51.938;15.520;2022-07-06T02:47:28;6.03;;;2.40;;
70420;SDS011;57848;51.938;15.520;2022-07-06T02:49:53;6.10;;;2.50;;
70420;SDS011;57848;51.938;15.520;2022-07-06T02:52:20;9.45;;;2.35;;
70420;SDS011;57848;51.938;15.520;2022-07-06T02:54:46;6.63;;;2.47;;
70420;SDS011;57848;51.938;15.520;2022-07-06T02:57:13;6.10;;;2.40;;
70420;SDS011;57848;51.938;15.520;2022-07-06T02:59:38;6.03;;;2.60;;
70420;SDS011;57848;51.938;15.520;2022-07-06T03:02:04;5.50;;;2.07;;
70420;SDS011;57848;51.938;15.520;2022-07-06T03:04:30;7.82;;;2.30;;
70420;SDS011;57848;51.938;15.520;2022-07-06T03:06:56;8.32;;;2.42;;
70420;SDS011;57848;51.938;15.520;2022-07-06T03:09:22;7.63;;;2.55;;
70420;SDS011;57848;51.938;15.520;2022-07-06T03:11:47;7.70;;;2.30;;
70420;SDS011;57848;51.938;15.520;2022-07-06T03:14:13;8.33;;;2.27;;
70420;SDS011;57848;51.938;15.520;2022-07-06T03:16:41;6.20;;;2.35;;
70420;SDS011;57848;51.938;15.520;2022-07-06T03:19:07;7.60;;;2.40;;
70420;SDS011;57848;51.938;15.520;2022-07-06T03:21:32;9.00;;;2.58;;
70420;SDS011;57848;51.938;15.520;2022-07-06T03:23:58;6.95;;;2.17;;
70420;SDS011;57848;51.938;15.520;2022-07-06T03:26:24;8.80;;;2.40;;
70420;SDS011;57848;51.938;15.520;2022-07-06T03:28:50;9.77;;;2.45;;
70420;SDS011;57848;51.938;15.520;2022-07-06T03:31:17;7.17;;;2.10;;
70420;SDS011;57848;51.938;15.520;2022-07-06T03:33:42;7.13;;;2.50;;
70420;SDS011;57848;51.938;15.520;2022-07-06T03:36:08;8.20;;;2.25;;
70420;SDS011;57848;51.938;15.520;2022-07-06T03:38:35;8.60;;;2.40;;
70420;SDS011;57848;51.938;15.520;2022-07-06T03:41:01;7.28;;;2.08;;
70420;SDS011;57848;51.938;15.520;2022-07-06T03:43:28;6.85;;;2.20;;
70420;SDS011;57848;51.938;15.520;2022-07-06T03:45:53;6.87;;;2.20;;
70420;SDS011;57848;51.938;15.520;2022-07-06T03:48:19;7.47;;;2.47;;
70420;SDS011;57848;51.938;15.520;2022-07-06T03:50:45;12.43;;;2.40;;
70420;SDS011;57848;51.938;15.520;2022-07-06T03:53:11;6.83;;;2.30;;
70420;SDS011;57848;51.938;15.520;2022-07-06T03:55:37;8.70;;;2.50;;
70420;SDS011;57848;51.938;15.520;2022-07-06T03:58:06;7.00;;;2.50;;
70420;SDS011;57848;51.938;15.520;2022-07-06T04:00:31;7.37;;;2.30;;
70420;SDS011;57848;51.938;15.520;2022-07-06T04:03:02;8.15;;;2.75;;
70420;SDS011;57848;51.938;15.520;2022-07-06T04:05:32;9.13;;;2.30;;
70420;SDS011;57848;51.938;15.520;2022-07-06T04:07:58;6.95;;;2.50;;
70420;SDS011;57848;51.938;15.520;2022-07-06T04:10:31;9.63;;;2.47;;
70420;SDS011;57848;51.938;15.520;2022-07-06T04:12:56;7.30;;;2.05;;
70420;SDS011;57848;51.938;15.520;2022-07-06T04:15:22;6.83;;;1.97;;
70420;SDS011;57848;51.938;15.520;2022-07-06T04:17:48;7.60;;;2.20;;
70420;SDS011;57848;51.938;15.520;2022-07-06T04:20:17;5.85;;;2.10;;
70420;SDS011;57848;51.938;15.520;2022-07-06T04:22:43;6.82;;;2.72;;
70420;SDS011;57848;51.938;15.520;2022-07-06T04:25:08;6.70;;;2.47;;
70420;SDS011;57848;51.938;15.520;2022-07-06T04:27:34;7.97;;;1.97;;
70420;SDS011;57848;51.938;15.520;2022-07-06T04:30:00;6.85;;;2.25;;
70420;SDS011;57848;51.938;15.520;2022-07-06T04:32:26;7.67;;;2.40;;
70420;SDS011;57848;51.938;15.520;2022-07-06T04:34:52;5.72;;;2.05;;
70420;SDS011;57848;51.938;15.520;2022-07-06T04:37:18;7.63;;;2.30;;
70420;SDS011;57848;51.938;15.520;2022-07-06T04:39:43;7.85;;;2.50;;
70420;SDS011;57848;51.938;15.520;2022-07-06T04:42:09;7.03;;;2.43;;
70420;SDS011;57848;51.938;15.520;2022-07-06T04:44:34;8.83;;;2.60;;
70420;SDS011;57848;51.938;15.520;2022-07-06T04:46:59;8.57;;;2.67;;
70420;SDS011;57848;51.938;15.520;2022-07-06T04:49:25;11.57;;;3.45;;
70420;SDS011;57848;51.938;15.520;2022-07-06T04:51:51;8.83;;;3.60;;
70420;SDS011;57848;51.938;15.520;2022-07-06T04:54:17;9.50;;;3.60;;
70420;SDS011;57848;51.938;15.520;2022-07-06T04:56:42;11.07;;;3.60;;
70420;SDS011;57848;51.938;15.520;2022-07-06T04:59:08;7.20;;;3.67;;
70420;SDS011;57848;51.938;15.520;2022-07-06T05:01:34;9.05;;;3.53;;
70420;SDS011;57848;51.938;15.520;2022-07-06T05:03:59;9.63;;;3.80;;
70420;SDS011;57848;51.938;15.520;2022-07-06T05:06:25;8.40;;;3.30;;
70420;SDS011;57848;51.938;15.520;2022-07-06T05:08:50;7.43;;;3.70;;
70420;SDS011;57848;51.938;15.520;2022-07-06T05:11:16;9.33;;;3.70;;
70420;SDS011;57848;51.938;15.520;2022-07-06T05:13:41;11.17;;;3.77;;
70420;SDS011;57848;51.938;15.520;2022-07-06T05:16:07;8.03;;;3.63;;
70420;SDS011;57848;51.938;15.520;2022-07-06T05:18:32;10.35;;;4.13;;
70420;SDS011;57848;51.938;15.520;2022-07-06T05:20:59;8.93;;;3.40;;
70420;SDS011;57848;51.938;15.520;2022-07-06T05:23:25;11.67;;;3.97;;
70420;SDS011;57848;51.938;15.520;2022-07-06T05:25:52;10.98;;;3.00;;
70420;SDS011;57848;51.938;15.520;2022-07-06T05:28:18;7.87;;;3.30;;
70420;SDS011;57848;51.938;15.520;2022-07-06T05:30:43;11.43;;;3.22;;
70420;SDS011;57848;51.938;15.520;2022-07-06T05:33:10;8.47;;;3.10;;
70420;SDS011;57848;51.938;15.520;2022-07-06T05:35:36;9.82;;;3.17;;
70420;SDS011;57848;51.938;15.520;2022-07-06T05:38:03;9.40;;;3.15;;
70420;SDS011;57848;51.938;15.520;2022-07-06T05:40:30;10.60;;;3.10;;
70420;SDS011;57848;51.938;15.520;2022-07-06T05:42:56;7.53;;;2.90;;
70420;SDS011;57848;51.938;15.520;2022-07-06T05:45:21;9.02;;;2.97;;
70420;SDS011;57848;51.938;15.520;2022-07-06T05:47:48;10.40;;;2.80;;
70420;SDS011;57848;51.938;15.520;2022-07-06T05:50:34;7.80;;;3.15;;
70420;SDS011;57848;51.938;15.520;2022-07-06T05:53:00;7.00;;;2.73;;
70420;SDS011;57848;51.938;15.520;2022-07-06T05:55:28;6.47;;;2.88;;
70420;SDS011;57848;51.938;15.520;2022-07-06T05:57:55;8.25;;;3.28;;
70420;SDS011;57848;51.938;15.520;2022-07-06T06:00:23;7.47;;;3.20;;
70420;SDS011;57848;51.938;15.520;2022-07-06T06:02:53;7.03;;;2.72;;
70420;SDS011;57848;51.938;15.520;2022-07-06T06:05:19;7.70;;;2.80;;
70420;SDS011;57848;51.938;15.520;2022-07-06T06:07:47;7.43;;;2.80;;
70420;SDS011;57848;51.938;15.520;2022-07-06T06:10:14;10.15;;;2.83;;
70420;SDS011;57848;51.938;15.520;2022-07-06T06:12:41;9.00;;;3.38;;
70420;SDS011;57848;51.938;15.520;2022-07-06T06:15:07;13.77;;;3.17;;
70420;SDS011;57848;51.938;15.520;2022-07-06T06:17:34;8.02;;;2.63;;
70420;SDS011;57848;51.938;15.520;2022-07-06T06:20:01;8.90;;;3.47;;
70420;SDS011;57848;51.938;15.520;2022-07-06T06:22:26;7.80;;;2.90;;
70420;SDS011;57848;51.938;15.520;2022-07-06T06:24:52;10.97;;;2.53;;
70420;SDS011;57848;51.938;15.520;2022-07-06T06:27:17;9.23;;;3.00;;
70420;SDS011;57848;51.938;15.520;2022-07-06T06:29:42;6.60;;;2.37;;
70420;SDS011;57848;51.938;15.520;2022-07-06T06:32:10;6.95;;;2.35;;
70420;SDS011;57848;51.938;15.520;2022-07-06T06:34:36;6.40;;;2.20;;
70420;SDS011;57848;51.938;15.520;2022-07-06T06:37:02;9.20;;;2.43;;
70420;SDS011;57848;51.938;15.520;2022-07-06T06:39:28;7.82;;;2.67;;
70420;SDS011;57848;51.938;15.520;2022-07-06T06:41:53;6.23;;;2.27;;
70420;SDS011;57848;51.938;15.520;2022-07-06T06:44:18;5.70;;;2.20;;
70420;SDS011;57848;51.938;15.520;2022-07-06T06:46:44;8.00;;;1.97;;
70420;SDS011;57848;51.938;15.520;2022-07-06T06:49:09;9.47;;;2.20;;
70420;SDS011;57848;51.938;15.520;2022-07-06T06:51:35;8.43;;;2.38;;
70420;SDS011;57848;51.938;15.520;2022-07-06T06:54:02;7.15;;;2.08;;
70420;SDS011;57848;51.938;15.520;2022-07-06T06:56:28;6.25;;;1.88;;
70420;SDS011;57848;51.938;15.520;2022-07-06T06:58:53;8.40;;;2.10;;
70420;SDS011;57848;51.938;15.520;2022-07-06T07:01:19;6.37;;;1.93;;
70420;SDS011;57848;51.938;15.520;2022-07-06T07:03:44;5.87;;;2.20;;
70420;SDS011;57848;51.938;15.520;2022-07-06T07:06:09;6.83;;;1.90;;
70420;SDS011;57848;51.938;15.520;2022-07-06T07:08:35;9.40;;;2.17;;
70420;SDS011;57848;51.938;15.520;2022-07-06T07:11:00;6.73;;;2.13;;
70420;SDS011;57848;51.938;15.520;2022-07-06T07:13:25;5.57;;;1.57;;
70420;SDS011;57848;51.938;15.520;2022-07-06T07:15:51;7.65;;;2.15;;
70420;SDS011;57848;51.938;15.520;2022-07-06T07:18:17;7.27;;;1.90;;
70420;SDS011;57848;51.938;15.520;2022-07-06T07:20:42;7.90;;;1.80;;
70420;SDS011;57848;51.938;15.520;2022-07-06T07:23:07;6.10;;;1.40;;
70420;SDS011;57848;51.938;15.520;2022-07-06T07:25:33;6.97;;;1.53;;
70420;SDS011;57848;51.938;15.520;2022-07-06T07:27:59;7.10;;;1.30;;
70420;SDS011;57848;51.938;15.520;2022-07-06T07:30:24;6.10;;;1.40;;
70420;SDS011;57848;51.938;15.520;2022-07-06T07:32:50;7.93;;;1.60;;
70420;SDS011;57848;51.938;15.520;2022-07-06T07:35:15;5.63;;;1.33;;
70420;SDS011;57848;51.938;15.520;2022-07-06T07:37:41;4.97;;;1.38;;
70420;SDS011;57848;51.938;15.520;2022-07-06T07:40:08;8.70;;;1.20;;
70420;SDS011;57848;51.938;15.520;2022-07-06T07:42:33;10.02;;;1.90;;
70420;SDS011;57848;51.938;15.520;2022-07-06T07:44:59;7.93;;;1.40;;
70420;SDS011;57848;51.938;15.520;2022-07-06T07:47:24;8.47;;;1.40;;
70420;SDS011;57848;51.938;15.520;2022-07-06T07:49:49;4.00;;;1.10;;
70420;SDS011;57848;51.938;15.520;2022-07-06T07:52:15;8.50;;;1.37;;
70420;SDS011;57848;51.938;15.520;2022-07-06T07:54:40;7.22;;;1.48;;
70420;SDS011;57848;51.938;15.520;2022-07-06T07:57:05;11.07;;;1.60;;
70420;SDS011;57848;51.938;15.520;2022-07-06T07:59:31;5.43;;;1.30;;
70420;SDS011;57848;51.938;15.520;2022-07-06T08:01:57;9.47;;;1.37;;
70420;SDS011;57848;51.938;15.520;2022-07-06T08:04:22;4.70;;;1.20;;
70420;SDS011;57848;51.938;15.520;2022-07-06T08:06:48;6.53;;;1.50;;
70420;SDS011;57848;51.938;15.520;2022-07-06T08:09:13;4.63;;;1.00;;
70420;SDS011;57848;51.938;15.520;2022-07-06T08:11:39;4.35;;;1.20;;
70420;SDS011;57848;51.938;15.520;2022-07-06T08:14:04;6.63;;;1.47;;
70420;SDS011;57848;51.938;15.520;2022-07-06T08:16:30;5.38;;;1.08;;
70420;SDS011;57848;51.938;15.520;2022-07-06T08:18:56;5.07;;;1.00;;
70420;SDS011;57848;51.938;15.520;2022-07-06T08:21:22;5.72;;;1.10;;
70420;SDS011;57848;51.938;15.520;2022-07-06T08:23:47;8.07;;;1.10;;
70420;SDS011;57848;51.938;15.520;2022-07-06T08:26:12;6.87;;;1.23;;
70420;SDS011;57848;51.938;15.520;2022-07-06T08:28:38;6.27;;;0.90;;
70420;SDS011;57848;51.938;15.520;2022-07-06T08:31:03;5.93;;;1.08;;
70420;SDS011;57848;51.938;15.520;2022-07-06T08:33:29;4.13;;;1.03;;
70420;SDS011;57848;51.938;15.520;2022-07-06T08:35:54;5.67;;;0.97;;
70420;SDS011;57848;51.938;15.520;2022-07-06T08:38:19;5.23;;;0.97;;
70420;SDS011;57848;51.938;15.520;2022-07-06T08:40:46;6.00;;;1.03;;
70420;SDS011;57848;51.938;15.520;2022-07-06T08:43:13;4.50;;;1.02;;
70420;SDS011;57848;51.938;15.520;2022-07-06T08:45:40;4.20;;;1.00;;
70420;SDS011;57848;51.938;15.520;2022-07-06T08:48:08;4.63;;;0.80;;
70420;SDS011;57848;51.938;15.520;2022-07-06T08:50:34;4.80;;;1.03;;
70420;SDS011;57848;51.938;15.520;2022-07-06T08:53:00;5.87;;;0.90;;
70420;SDS011;57848;51.938;15.520;2022-07-06T08:55:26;7.55;;;1.10;;
70420;SDS011;57848;51.938;15.520;2022-07-06T08:57:52;6.95;;;1.20;;
70420;SDS011;57848;51.938;15.520;2022-07-06T09:00:19;5.63;;;0.90;;
70420;SDS011;57848;51.938;15.520;2022-07-06T09:02:45;7.15;;;1.00;;
70420;SDS011;57848;51.938;15.520;2022-07-06T09:05:13;5.03;;;0.93;;
70420;SDS011;57848;51.938;15.520;2022-07-06T09:07:40;5.43;;;0.90;;
70420;SDS011;57848;51.938;15.520;2022-07-06T09:10:06;4.07;;;0.90;;
70420;SDS011;57848;51.938;15.520;2022-07-06T09:12:33;5.40;;;1.10;;
70420;SDS011;57848;51.938;15.520;2022-07-06T09:14:58;5.60;;;1.00;;
70420;SDS011;57848;51.938;15.520;2022-07-06T09:17:27;3.43;;;0.87;;
70420;SDS011;57848;51.938;15.520;2022-07-06T09:19:54;5.38;;;1.23;;
70420;SDS011;57848;51.938;15.520;2022-07-06T09:22:29;4.60;;;0.80;;
70420;SDS011;57848;51.938;15.520;2022-07-06T09:27:41;7.07;;;1.10;;
70420;SDS011;57848;51.938;15.520;2022-07-06T09:30:08;7.38;;;1.08;;
70420;SDS011;57848;51.938;15.520;2022-07-06T09:32:42;4.20;;;1.10;;
70420;SDS011;57848;51.938;15.520;2022-07-06T09:35:19;5.75;;;0.93;;
70420;SDS011;57848;51.938;15.520;2022-07-06T09:37:45;6.28;;;1.23;;
70420;SDS011;57848;51.938;15.520;2022-07-06T09:40:16;4.10;;;1.17;;
70420;SDS011;57848;51.938;15.520;2022-07-06T09:42:43;5.28;;;1.33;;
70420;SDS011;57848;51.938;15.520;2022-07-06T09:45:09;6.53;;;1.35;;
70420;SDS011;57848;51.938;15.520;2022-07-06T09:47:34;4.57;;;1.40;;
70420;SDS011;57848;51.938;15.520;2022-07-06T09:49:59;4.50;;;1.00;;
70420;SDS011;57848;51.938;15.520;2022-07-06T09:52:25;8.57;;;1.10;;
70420;SDS011;57848;51.938;15.520;2022-07-06T09:54:50;4.10;;;1.20;;
70420;SDS011;57848;51.938;15.520;2022-07-06T09:57:16;5.80;;;1.27;;
70420;SDS011;57848;51.938;15.520;2022-07-06T09:59:41;5.80;;;1.10;;
70420;SDS011;57848;51.938;15.520;2022-07-06T10:02:07;6.03;;;1.33;;
70420;SDS011;57848;51.938;15.520;2022-07-06T10:04:33;7.00;;;1.50;;
70420;SDS011;57848;51.938;15.520;2022-07-06T10:06:59;6.57;;;1.05;;
70420;SDS011;57848;51.938;15.520;2022-07-06T10:09:26;9.10;;;2.22;;
70420;SDS011;57848;51.938;15.520;2022-07-06T10:11:56;4.50;;;1.30;;
70420;SDS011;57848;51.938;15.520;2022-07-06T10:14:24;7.40;;;1.33;;
70420;SDS011;57848;51.938;15.520;2022-07-06T10:17:00;7.93;;;1.60;;
70420;SDS011;57848;51.938;15.520;2022-07-06T10:19:27;5.65;;;1.00;;
70420;SDS011;57848;51.938;15.520;2022-07-06T10:21:54;5.93;;;1.35;;
70420;SDS011;57848;51.938;15.520;2022-07-06T10:24:21;5.80;;;1.23;;
70420;SDS011;57848;51.938;15.520;2022-07-06T10:26:47;5.25;;;1.17;;
70420;SDS011;57848;51.938;15.520;2022-07-06T10:29:13;10.00;;;1.30;;
70420;SDS011;57848;51.938;15.520;2022-07-06T10:31:40;7.93;;;1.65;;
70420;SDS011;57848;51.938;15.520;2022-07-06T10:34:09;5.43;;;1.40;;
70420;SDS011;57848;51.938;15.520;2022-07-06T10:36:40;6.57;;;1.65;;
70420;SDS011;57848;51.938;15.520;2022-07-06T10:39:07;6.25;;;1.77;;
70420;SDS011;57848;51.938;15.520;2022-07-06T10:41:51;6.40;;;1.50;;
70420;SDS011;57848;51.938;15.520;2022-07-06T10:44:18;5.80;;;1.77;;
70420;SDS011;57848;51.938;15.520;2022-07-06T10:46:50;7.30;;;1.42;;
70420;SDS011;57848;51.938;15.520;2022-07-06T10:49:20;6.18;;;1.42;;
70420;SDS011;57848;51.938;15.520;2022-07-06T10:51:46;7.88;;;1.48;;
70420;SDS011;57848;51.938;15.520;2022-07-06T10:54:12;7.83;;;1.60;;
70420;SDS011;57848;51.938;15.520;2022-07-06T10:56:39;6.55;;;1.10;;
70420;SDS011;57848;51.938;15.520;2022-07-06T10:59:09;7.10;;;1.33;;
70420;SDS011;57848;51.938;15.520;2022-07-06T11:04:45;5.03;;;1.17;;
70420;SDS011;57848;51.938;15.520;2022-07-06T11:07:13;5.40;;;1.27;;
70420;SDS011;57848;51.938;15.520;2022-07-06T11:09:39;4.00;;;1.10;;
70420;SDS011;57848;51.938;15.520;2022-07-06T11:12:16;4.33;;;1.37;;
70420;SDS011;57848;51.938;15.520;2022-07-06T11:14:43;8.85;;;1.20;;
70420;SDS011;57848;51.938;15.520;2022-07-06T11:17:10;6.70;;;1.30;;
70420;SDS011;57848;51.938;15.520;2022-07-06T11:19:36;6.30;;;1.67;;
70420;SDS011;57848;51.938;15.520;2022-07-06T11:22:05;5.20;;;1.43;;
70420;SDS011;57848;51.938;15.520;2022-07-06T11:24:32;5.28;;;1.15;;
70420;SDS011;57848;51.938;15.520;2022-07-06T11:27:00;5.38;;;1.33;;
70420;SDS011;57848;51.938;15.520;2022-07-06T11:29:27;8.17;;;1.17;;
70420;SDS011;57848;51.938;15.520;2022-07-06T11:31:54;5.68;;;1.25;;
70420;SDS011;57848;51.938;15.520;2022-07-06T11:34:26;6.45;;;1.27;;
70420;SDS011;57848;51.938;15.520;2022-07-06T11:36:56;5.00;;;1.00;;
70420;SDS011;57848;51.938;15.520;2022-07-06T11:39:25;5.80;;;1.00;;
70420;SDS011;57848;51.938;15.520;2022-07-06T11:41:53;6.35;;;1.20;;
70420;SDS011;57848;51.938;15.520;2022-07-06T11:44:19;4.15;;;1.02;;
70420;SDS011;57848;51.938;15.520;2022-07-06T11:46:44;6.03;;;1.03;;
70420;SDS011;57848;51.938;15.520;2022-07-06T11:49:10;3.67;;;0.97;;
70420;SDS011;57848;51.938;15.520;2022-07-06T11:51:36;6.87;;;1.10;;
70420;SDS011;57848;51.938;15.520;2022-07-06T11:54:07;5.37;;;1.50;;
70420;SDS011;57848;51.938;15.520;2022-07-06T11:56:34;4.60;;;0.90;;
70420;SDS011;57848;51.938;15.520;2022-07-06T11:59:00;4.82;;;0.90;;
70420;SDS011;57848;51.938;15.520;2022-07-06T12:01:27;5.47;;;0.90;;
70420;SDS011;57848;51.938;15.520;2022-07-06T12:03:56;4.60;;;1.10;;
70420;SDS011;57848;51.938;15.520;2022-07-06T12:06:30;6.90;;;1.42;;
70420;SDS011;57848;51.938;15.520;2022-07-06T12:08:59;7.57;;;1.13;;
70420;SDS011;57848;51.938;15.520;2022-07-06T12:11:29;6.20;;;1.42;;
70420;SDS011;57848;51.938;15.520;2022-07-06T12:14:00;4.68;;;1.38;;
70420;SDS011;57848;51.938;15.520;2022-07-06T12:16:32;5.82;;;1.08;;
70420;SDS011;57848;51.938;15.520;2022-07-06T12:19:00;6.57;;;0.90;;
70420;SDS011;57848;51.938;15.520;2022-07-06T12:21:27;4.57;;;1.13;;
70420;SDS011;57848;51.938;15.520;2022-07-06T12:23:53;4.88;;;1.00;;
70420;SDS011;57848;51.938;15.520;2022-07-06T12:26:23;5.13;;;0.90;;
70420;SDS011;57848;51.938;15.520;2022-07-06T12:29:03;9.75;;;1.40;;
70420;SDS011;57848;51.938;15.520;2022-07-06T12:34:02;4.72;;;0.90;;
70420;SDS011;57848;51.938;15.520;2022-07-06T12:36:29;5.05;;;1.10;;
70420;SDS011;57848;51.938;15.520;2022-07-06T12:38:54;5.47;;;0.97;;
70420;SDS011;57848;51.938;15.520;2022-07-06T12:41:26;4.93;;;1.10;;
70420;SDS011;57848;51.938;15.520;2022-07-06T12:44:08;3.95;;;1.10;;
70420;SDS011;57848;51.938;15.520;2022-07-06T12:49:10;4.00;;;0.93;;
70420;SDS011;57848;51.938;15.520;2022-07-06T12:54:25;5.07;;;1.00;;
70420;SDS011;57848;51.938;15.520;2022-07-06T12:57:07;7.05;;;1.30;;
70420;SDS011;57848;51.938;15.520;2022-07-06T12:59:41;6.15;;;1.05;;
70420;SDS011;57848;51.938;15.520;2022-07-06T13:02:17;6.23;;;1.00;;
70420;SDS011;57848;51.938;15.520;2022-07-06T13:04:43;5.18;;;1.13;;
70420;SDS011;57848;51.938;15.520;2022-07-06T13:07:14;6.37;;;0.90;;
70420;SDS011;57848;51.938;15.520;2022-07-06T13:09:43;5.93;;;1.10;;
70420;SDS011;57848;51.938;15.520;2022-07-06T13:12:08;6.63;;;1.13;;
70420;SDS011;57848;51.938;15.520;2022-07-06T13:14:34;3.33;;;0.73;;
70420;SDS011;57848;51.938;15.520;2022-07-06T13:16:59;6.05;;;1.10;;
70420;SDS011;57848;51.938;15.520;2022-07-06T13:19:24;7.23;;;1.10;;
70420;SDS011;57848;51.938;15.520;2022-07-06T13:21:50;7.77;;;1.10;;
70420;SDS011;57848;51.938;15.520;2022-07-06T13:24:15;6.57;;;1.10;;
70420;SDS011;57848;51.938;15.520;2022-07-06T13:26:41;5.47;;;1.10;;
70420;SDS011;57848;51.938;15.520;2022-07-06T13:29:06;5.17;;;1.10;;
70420;SDS011;57848;51.938;15.520;2022-07-06T13:31:32;8.10;;;1.10;;
70420;SDS011;57848;51.938;15.520;2022-07-06T13:33:57;3.73;;;1.00;;
70420;SDS011;57848;51.938;15.520;2022-07-06T13:36:22;4.90;;;0.80;;
70420;SDS011;57848;51.938;15.520;2022-07-06T13:38:48;6.63;;;1.15;;
70420;SDS011;57848;51.938;15.520;2022-07-06T13:41:13;7.23;;;1.03;;
70420;SDS011;57848;51.938;15.520;2022-07-06T13:43:39;4.93;;;0.93;;
70420;SDS011;57848;51.938;15.520;2022-07-06T13:46:05;5.65;;;0.98;;
70420;SDS011;57848;51.938;15.520;2022-07-06T13:48:31;6.07;;;0.93;;
70420;SDS011;57848;51.938;15.520;2022-07-06T13:50:58;4.65;;;1.05;;
70420;SDS011;57848;51.938;15.520;2022-07-06T13:53:23;4.78;;;0.95;;
70420;SDS011;57848;51.938;15.520;2022-07-06T13:55:49;4.47;;;0.87;;
70420;SDS011;57848;51.938;15.520;2022-07-06T13:58:14;4.38;;;0.68;;
70420;SDS011;57848;51.938;15.520;2022-07-06T14:00:40;3.77;;;0.70;;
70420;SDS011;57848;51.938;15.520;2022-07-06T14:03:06;6.53;;;1.42;;
70420;SDS011;57848;51.938;15.520;2022-07-06T14:05:31;6.90;;;1.00;;
70420;SDS011;57848;51.938;15.520;2022-07-06T14:07:57;5.72;;;1.20;;
70420;SDS011;57848;51.938;15.520;2022-07-06T14:10:23;5.00;;;0.83;;
70420;SDS011;57848;51.938;15.520;2022-07-06T14:12:48;4.85;;;0.90;;
70420;SDS011;57848;51.938;15.520;2022-07-06T14:15:13;5.00;;;1.10;;
70420;SDS011;57848;51.938;15.520;2022-07-06T14:17:39;4.00;;;0.70;;
70420;SDS011;57848;51.938;15.520;2022-07-06T14:20:04;3.70;;;0.80;;
70420;SDS011;57848;51.938;15.520;2022-07-06T14:22:30;5.63;;;1.08;;
70420;SDS011;57848;51.938;15.520;2022-07-06T14:24:55;4.23;;;0.90;;
70420;SDS011;57848;51.938;15.520;2022-07-06T14:27:21;6.17;;;0.90;;
70420;SDS011;57848;51.938;15.520;2022-07-06T14:29:46;8.10;;;0.73;;
70420;SDS011;57848;51.938;15.520;2022-07-06T14:32:12;7.03;;;0.90;;
70420;SDS011;57848;51.938;15.520;2022-07-06T14:34:37;6.63;;;1.00;;
70420;SDS011;57848;51.938;15.520;2022-07-06T14:37:02;7.20;;;0.83;;
70420;SDS011;57848;51.938;15.520;2022-07-06T14:39:28;6.43;;;0.70;;
70420;SDS011;57848;51.938;15.520;2022-07-06T14:41:54;5.50;;;0.90;;
70420;SDS011;57848;51.938;15.520;2022-07-06T14:44:19;4.63;;;0.83;;